-> Other stations

1455

Speed(max): 3.8(5.4)knots
Direction:149° ( SSE)
Temperature: 35.0°C
Arrived: 2026-09-04 10:09:23 CEST

Past data:
hh:mmknots
Dir (°)
°C
10:07 2.2 4.3 S(172) 35.7
10:05 3.8 5.4 SE(132) 34.3
10:03 2.2 4.3 SE(146) 35.3
10:01 2.2 4.3 SSE(160) 35.6
09:59 3.2 4.9 SE(140) 35.1
09:57 2.7 4.3 SSE(166) 34.7
09:55 3.8 5.4 SE(134) 34.2
09:53 4.3 5.4 SE(124) 34.1
09:51 4.3 5.9 SE(125) 34.5
09:49 2.7 4.9 SE(138) 35.2
09:47 2.2 4.3 SSE(161) 35.8
09:45 1.6 3.8 S(170) 36.8
09:43 2.2 3.8 S(173) 36.1
09:41 1.6 2.7 S(173) 36.5
15 min. averages:
hh:mmknots
Dir (°)
°C
10:00 3.2 5.9 SE(145) 35.1
09:45 1.6 3.8 S(171) 37.0
09:30 1.1 4.3 SE(131) 36.4
09:15 1.1 2.7 S(171) 35.7
09:00 0.5 2.2 WSW(247) 34.4
08:45 0 0 WSW(247) 35.2
08:30 0 1.1 WSW(248) 35.3
08:15 0 0 WSW(248) 33.9
08:00 1.1 2.2 WSW(248) 29.5
07:45 1.1 2.2 WSW(248) 24.8
07:30 1.1 2.2 WSW(248) 23.0
07:15 1.1 2.2 WSW(248) 21.2
07:00 0 1.6 WSW(248) 21.6
06:45 0.5 1.6 WSW(248) 19.3
06:30 0 0 WSW(237) 18.6
Stations at HR:
1455
-> Other regions

Desktop view
Data provided by Holfuy.
© Holfuy Weather 2026